Time;durP1;ratioP1;P1;durP2;ratioP2;P2;SDS_P1;SDS_P2;PMS_P1;PMS_P2;Temp;Humidity;BMP_temperature;BMP_pressure;BME280_temperature;BME280_humidity;BME280_pressure;Samples;Min_cycle;Max_cycle;Signal;HPM_P1;HPM_P2
2022/12/08 00:00:51;;;;;;;;;;;18.20;66.80;;;;;;4515066;31;20413;-75
2022/12/08 00:03:17;;;;;;;;;;;18.20;66.80;;;;;;4514936;31;20028;-75
2022/12/08 00:11:13;;;;;;;;;;;18.20;66.90;;;;;;4513887;31;20037;-75
2022/12/08 00:13:40;;;;;;;;;;;18.20;66.90;;;;;;4514643;31;20098;-75
2022/12/08 00:16:06;;;;;;;;;;;18.20;66.90;;;;;;4514915;31;20028;-75
2022/12/08 00:18:32;;;;;;;;;;;18.20;66.90;;;;;;4514450;31;20012;-75
2022/12/08 00:21:05;;;;;;;;;;;18.10;66.90;;;;;;4513570;31;20102;-75
2022/12/08 00:23:31;;;;;;;;;;;18.20;66.90;;;;;;4514462;31;20159;-75
2022/12/08 00:26:00;;;;;;;;;;;18.10;66.90;;;;;;4513507;31;20390;-75
2022/12/08 00:28:26;;;;;;;;;;;18.10;66.90;;;;;;4514515;31;20076;-75
2022/12/08 00:30:52;;;;;;;;;;;18.10;66.90;;;;;;4514403;31;20080;-75
2022/12/08 00:33:17;;;;;;;;;;;18.10;66.90;;;;;;4514868;31;20087;-75
2022/12/08 00:35:43;;;;;;;;;;;18.10;66.80;;;;;;4513420;31;20063;-75
2022/12/08 00:38:09;;;;;;;;;;;18.10;66.90;;;;;;4513362;31;20147;-75
2022/12/08 00:40:36;;;;;;;;;;;18.00;66.80;;;;;;4514408;31;20453;-75
2022/12/08 00:43:02;;;;;;;;;;;18.00;66.90;;;;;;4513324;31;20037;-75
2022/12/08 00:45:28;;;;;;;;;;;18.00;66.80;;;;;;4514378;31;20040;-75
2022/12/08 00:47:54;;;;;;;;;;;18.00;66.80;;;;;;4514277;31;20544;-75
2022/12/08 00:50:20;;;;;;;;;;;18.00;66.90;;;;;;4513364;31;20029;-75
2022/12/08 00:52:46;;;;;;;;;;;18.00;66.80;;;;;;4514113;31;20043;-75
2022/12/08 00:55:12;;;;;;;;;;;18.00;66.90;;;;;;4500135;31;20102;-76
2022/12/08 00:57:37;;;;;;;;;;;18.00;66.90;;;;;;4514086;31;20028;-75
2022/12/08 01:00:04;;;;;;;;;;;18.00;67.00;;;;;;4514219;31;20043;-75
2022/12/08 01:02:37;;;;;;;;;;;18.00;66.90;;;;;;4514093;31;20497;-75
2022/12/08 01:05:06;;;;;;;;;;;18.00;66.90;;;;;;4513113;31;20048;-75
2022/12/08 01:07:32;;;;;;;;;;;18.00;66.90;;;;;;4513418;31;20043;-75
2022/12/08 01:09:57;;;;;;;;;;;17.90;66.90;;;;;;4526267;31;20036;-74
2022/12/08 01:12:27;;;;;;;;;;;17.90;66.90;;;;;;4514343;31;20036;-75
2022/12/08 01:14:55;;;;;;;;;;;17.90;66.90;;;;;;4514228;31;20040;-75
2022/12/08 01:17:21;;;;;;;;;;;17.90;66.90;;;;;;4514093;31;20029;-74
2022/12/08 01:19:47;;;;;;;;;;;17.90;66.90;;;;;;4512977;31;20039;-74
2022/12/08 01:22:13;;;;;;;;;;;17.90;66.90;;;;;;4514018;31;20020;-74
2022/12/08 01:24:39;;;;;;;;;;;17.90;66.90;;;;;;4514289;31;20043;-75
2022/12/08 01:27:05;;;;;;;;;;;17.90;66.90;;;;;;4513066;31;20159;-74
2022/12/08 01:29:30;;;;;;;;;;;17.80;66.90;;;;;;4514134;31;20082;-74
2022/12/08 01:32:00;;;;;;;;;;;17.80;66.90;;;;;;4514969;31;20048;-74
2022/12/08 01:34:26;;;;;;;;;;;17.80;66.80;;;;;;4516186;31;20044;-75
2022/12/08 01:37:03;;;;;;;;;;;17.80;66.80;;;;;;4517481;31;20044;-75
2022/12/08 01:39:29;;;;;;;;;;;17.80;66.80;;;;;;4515541;31;20159;-74
2022/12/08 01:41:56;;;;;;;;;;;17.80;66.80;;;;;;4529698;31;20035;-75
2022/12/08 01:44:21;;;;;;;;;;;17.80;66.90;;;;;;4517035;31;20032;-74
2022/12/08 01:46:47;;;;;;;;;;;17.80;66.90;;;;;;4517229;31;20028;-75
2022/12/08 01:49:18;;;;;;;;;;;17.80;66.80;;;;;;4515794;31;20233;-75
2022/12/08 01:51:47;;;;;;;;;;;17.80;66.80;;;;;;4517177;31;20040;-75
2022/12/08 01:54:14;;;;;;;;;;;17.80;66.80;;;;;;4500671;31;20040;-75
2022/12/08 01:56:51;;;;;;;;;;;17.80;66.90;;;;;;4516986;31;20454;-75
2022/12/08 01:59:17;;;;;;;;;;;17.80;66.80;;;;;;4517153;31;20080;-75
2022/12/08 02:01:43;;;;;;;;;;;17.70;66.70;;;;;;4515488;31;20192;-75
2022/12/08 02:04:09;;;;;;;;;;;17.70;66.80;;;;;;4515811;31;20036;-75
2022/12/08 02:06:37;;;;;;;;;;;17.70;66.70;;;;;;4516612;31;20020;-75
2022/12/08 02:09:04;;;;;;;;;;;17.70;66.70;;;;;;4516368;31;20094;-75
2022/12/08 02:11:30;;;;;;;;;;;17.70;66.80;;;;;;4516627;31;20051;-75
2022/12/08 02:13:57;;;;;;;;;;;17.70;66.80;;;;;;4516434;31;20020;-74
2022/12/08 02:16:38;;;;;;;;;;;17.70;66.80;;;;;;4499949;31;20047;-75
2022/12/08 02:19:06;;;;;;;;;;;17.70;66.90;;;;;;4515226;31;20169;-75
2022/12/08 02:21:31;;;;;;;;;;;17.70;66.80;;;;;;4511161;31;20155;-75
2022/12/08 02:23:57;;;;;;;;;;;17.70;66.80;;;;;;4509233;31;20102;-75
2022/12/08 02:26:23;;;;;;;;;;;17.70;66.70;;;;;;4516477;31;20532;-75
2022/12/08 02:29:01;;;;;;;;;;;17.70;66.80;;;;;;4516650;31;20035;-75
2022/12/08 02:31:26;;;;;;;;;;;17.70;66.80;;;;;;4506269;31;20255;-75
2022/12/08 02:34:22;;;;;;;;;;;17.70;66.70;;;;;;4516464;31;20545;-75
2022/12/08 02:36:59;;;;;;;;;;;17.70;66.80;;;;;;4462689;31;20148;-75
2022/12/08 02:39:36;;;;;;;;;;;17.60;66.70;;;;;;4512765;31;20101;-75
2022/12/08 02:42:16;;;;;;;;;;;17.60;66.80;;;;;;4515280;31;20043;-75
2022/12/08 02:44:46;;;;;;;;;;;17.60;66.80;;;;;;4499192;31;20041;-75
2022/12/08 02:47:14;;;;;;;;;;;17.60;66.90;;;;;;4508697;31;20024;-75
2022/12/08 02:49:43;;;;;;;;;;;17.60;66.90;;;;;;4516043;31;20396;-75
2022/12/08 02:52:12;;;;;;;;;;;17.60;66.80;;;;;;4515543;31;20606;-75
2022/12/08 02:54:44;;;;;;;;;;;17.50;66.90;;;;;;4515946;31;20013;-75
2022/12/08 02:57:28;;;;;;;;;;;17.50;66.90;;;;;;4514871;31;20047;-75
2022/12/08 02:59:54;;;;;;;;;;;17.50;66.90;;;;;;4515991;31;20068;-75
2022/12/08 03:02:39;;;;;;;;;;;17.50;66.90;;;;;;4515712;31;20024;-74
2022/12/08 03:05:16;;;;;;;;;;;17.50;66.90;;;;;;4515728;31;20088;-74
2022/12/08 03:07:48;;;;;;;;;;;17.50;66.90;;;;;;4515911;31;20033;-74
2022/12/08 03:10:18;;;;;;;;;;;17.50;66.90;;;;;;4514433;31;20035;-73
2022/12/08 03:12:48;;;;;;;;;;;17.50;66.90;;;;;;4515758;31;20155;-74
2022/12/08 03:15:16;;;;;;;;;;;17.50;66.90;;;;;;4515593;31;20020;-74
2022/12/08 03:17:44;;;;;;;;;;;17.50;66.90;;;;;;4507120;31;20013;-74
2022/12/08 03:20:13;;;;;;;;;;;17.40;66.80;;;;;;4512490;31;20186;-74
2022/12/08 03:22:40;;;;;;;;;;;17.40;66.80;;;;;;4515752;31;20142;-74
2022/12/08 03:25:11;;;;;;;;;;;17.40;66.90;;;;;;4515634;31;20024;-74
2022/12/08 03:27:37;;;;;;;;;;;17.40;66.90;;;;;;4515407;31;20021;-74
2022/12/08 03:30:03;;;;;;;;;;;17.40;66.90;;;;;;4514270;31;20070;-75
2022/12/08 03:32:29;;;;;;;;;;;17.40;66.90;;;;;;4515329;31;20040;-75
2022/12/08 03:34:56;;;;;;;;;;;17.40;66.90;;;;;;4514453;31;20024;-74
2022/12/08 03:37:22;;;;;;;;;;;17.40;66.90;;;;;;4515349;31;20484;-75
2022/12/08 03:39:48;;;;;;;;;;;17.40;66.90;;;;;;4515260;31;20469;-74
2022/12/08 03:42:16;;;;;;;;;;;17.40;66.90;;;;;;4514276;31;20540;-75
2022/12/08 03:44:42;;;;;;;;;;;17.40;66.90;;;;;;4514247;31;20556;-74
2022/12/08 03:47:07;;;;;;;;;;;17.40;66.90;;;;;;4514156;31;20035;-75
2022/12/08 03:49:33;;;;;;;;;;;17.40;66.90;;;;;;4514994;31;20032;-74
2022/12/08 03:51:59;;;;;;;;;;;17.30;66.90;;;;;;4513906;31;20056;-74
2022/12/08 03:54:25;;;;;;;;;;;17.30;66.90;;;;;;4514666;31;20082;-74
2022/12/08 03:56:57;;;;;;;;;;;17.30;66.90;;;;;;4514168;31;20029;-74
2022/12/08 03:59:23;;;;;;;;;;;17.30;66.90;;;;;;4500767;31;20036;-74
2022/12/08 04:01:48;;;;;;;;;;;17.30;66.90;;;;;;4515037;31;20013;-75
2022/12/08 04:04:14;;;;;;;;;;;17.30;66.90;;;;;;4513805;31;20028;-75
2022/12/08 04:06:40;;;;;;;;;;;17.30;66.90;;;;;;4513819;31;20094;-75
2022/12/08 04:09:06;;;;;;;;;;;17.30;66.90;;;;;;4514716;31;20024;-74
2022/12/08 04:11:32;;;;;;;;;;;17.20;66.90;;;;;;4513896;31;20027;-74
2022/12/08 04:14:00;;;;;;;;;;;17.20;66.90;;;;;;4514917;31;20013;-74
2022/12/08 04:16:27;;;;;;;;;;;17.20;66.90;;;;;;4513846;31;20093;-74
2022/12/08 04:18:53;;;;;;;;;;;17.20;66.90;;;;;;4514770;31;20021;-74
2022/12/08 04:21:19;;;;;;;;;;;17.20;66.90;;;;;;4513558;31;20021;-74
2022/12/08 04:23:45;;;;;;;;;;;17.20;66.90;;;;;;4513672;31;20146;-75
2022/12/08 04:26:12;;;;;;;;;;;17.20;66.80;;;;;;4514842;31;20063;-74
2022/12/08 04:28:37;;;;;;;;;;;17.20;66.90;;;;;;4513608;31;20133;-74
2022/12/08 04:31:03;;;;;;;;;;;17.20;66.90;;;;;;4513490;31;20158;-74
2022/12/08 04:33:29;;;;;;;;;;;17.30;66.80;;;;;;4514908;31;20021;-74
2022/12/08 04:35:55;;;;;;;;;;;17.30;66.70;;;;;;4513325;31;20087;-76
2022/12/08 04:38:21;;;;;;;;;;;17.30;66.70;;;;;;4514415;31;20155;-73
2022/12/08 04:40:57;;;;;;;;;;;17.30;66.60;;;;;;4514463;31;20167;-73
2022/12/08 04:43:26;;;;;;;;;;;17.30;66.60;;;;;;4514387;31;20054;-73
2022/12/08 04:45:52;;;;;;;;;;;17.40;66.60;;;;;;4514481;31;20033;-74
2022/12/08 04:48:18;;;;;;;;;;;17.40;66.50;;;;;;4513471;31;20031;-75
2022/12/08 04:50:44;;;;;;;;;;;17.40;66.40;;;;;;4514225;31;20025;-77
2022/12/08 04:53:10;;;;;;;;;;;17.40;66.40;;;;;;4513004;31;20017;-78
2022/12/08 04:55:38;;;;;;;;;;;17.40;66.40;;;;;;4512757;31;20116;-79
2022/12/08 04:58:03;;;;;;;;;;;17.40;66.30;;;;;;4512932;31;20175;-79
2022/12/08 05:00:29;;;;;;;;;;;17.40;66.30;;;;;;4512877;31;20479;-79
2022/12/08 05:02:55;;;;;;;;;;;17.40;66.20;;;;;;4510810;31;20025;-79
2022/12/08 05:05:21;;;;;;;;;;;17.40;66.20;;;;;;4511499;31;20013;-75
2022/12/08 05:07:47;;;;;;;;;;;17.50;66.10;;;;;;4516000;31;20158;-76
2022/12/08 05:10:14;;;;;;;;;;;17.50;66.10;;;;;;4501881;31;20122;-75
2022/12/08 05:12:41;;;;;;;;;;;17.50;66.10;;;;;;4517210;31;20029;-76
2022/12/08 05:15:07;;;;;;;;;;;17.50;66.10;;;;;;4515059;31;20043;-76
2022/12/08 05:17:33;;;;;;;;;;;17.50;66.00;;;;;;4517032;31;20017;-76
2022/12/08 05:20:00;;;;;;;;;;;17.50;65.90;;;;;;4513212;31;20043;-78
2022/12/08 05:22:25;;;;;;;;;;;17.50;66.00;;;;;;4513530;31;20033;-75
2022/12/08 05:24:51;;;;;;;;;;;17.50;66.00;;;;;;4514766;31;20138;-77
2022/12/08 05:27:17;;;;;;;;;;;17.50;65.90;;;;;;4515720;31;20036;-77
2022/12/08 05:29:43;;;;;;;;;;;17.50;65.90;;;;;;4512530;31;20058;-75
2022/12/08 05:32:09;;;;;;;;;;;17.50;65.90;;;;;;4511789;31;20362;-75
2022/12/08 05:34:35;;;;;;;;;;;17.50;65.90;;;;;;4509319;31;20103;-74
2022/12/08 05:37:00;;;;;;;;;;;17.50;65.90;;;;;;4516114;31;20151;-75
2022/12/08 05:39:26;;;;;;;;;;;17.50;65.90;;;;;;4508019;31;20029;-75
2022/12/08 05:41:52;;;;;;;;;;;17.50;65.90;;;;;;4511741;31;20175;-75
2022/12/08 05:44:18;;;;;;;;;;;17.50;65.80;;;;;;4509951;31;20095;-74
2022/12/08 05:46:44;;;;;;;;;;;17.50;65.80;;;;;;4509837;31;20021;-75
2022/12/08 05:49:09;;;;;;;;;;;17.50;65.80;;;;;;4510323;31;20025;-75
2022/12/08 05:51:35;;;;;;;;;;;17.50;65.70;;;;;;4508825;31;20191;-75
2022/12/08 05:54:01;;;;;;;;;;;17.50;65.80;;;;;;4499885;31;20021;-75
2022/12/08 05:56:27;;;;;;;;;;;17.50;65.80;;;;;;4507610;31;20029;-75
2022/12/08 05:58:53;;;;;;;;;;;17.50;65.70;;;;;;4511513;31;20016;-75
2022/12/08 06:01:23;;;;;;;;;;;17.50;65.80;;;;;;4509633;31;20031;-75
2022/12/08 06:03:49;;;;;;;;;;;17.50;65.70;;;;;;4511361;31;20085;-75
2022/12/08 06:06:21;;;;;;;;;;;17.50;65.70;;;;;;4508923;31;20065;-75
2022/12/08 06:08:47;;;;;;;;;;;17.50;65.70;;;;;;4509942;31;20036;-75
2022/12/08 06:11:17;;;;;;;;;;;17.50;65.70;;;;;;4511522;31;20021;-75
2022/12/08 06:13:43;;;;;;;;;;;17.50;65.70;;;;;;4508965;31;20037;-75
2022/12/08 06:16:09;;;;;;;;;;;17.50;65.70;;;;;;4512415;31;20141;-75
2022/12/08 06:18:36;;;;;;;;;;;17.50;65.70;;;;;;4505935;31;20474;-75
2022/12/08 06:21:07;;;;;;;;;;;17.50;65.60;;;;;;4515359;31;20050;-75
2022/12/08 06:23:33;;;;;;;;;;;17.50;65.70;;;;;;4508555;31;20150;-75
2022/12/08 06:26:19;;;;;;;;;;;17.50;65.60;;;;;;4511226;31;20032;-75
2022/12/08 06:28:45;;;;;;;;;;;17.50;65.60;;;;;;4512922;31;20021;-75
2022/12/08 06:31:14;;;;;;;;;;;17.50;65.60;;;;;;4516386;31;20457;-75
2022/12/08 06:33:40;;;;;;;;;;;17.50;65.60;;;;;;4516536;31;20041;-75
2022/12/08 06:36:06;;;;;;;;;;;17.50;65.60;;;;;;4516142;31;20455;-75
2022/12/08 06:38:33;;;;;;;;;;;17.50;65.60;;;;;;4516184;31;20039;-75
2022/12/08 06:41:01;;;;;;;;;;;17.50;65.60;;;;;;4499326;31;20043;-75
2022/12/08 06:43:27;;;;;;;;;;;17.50;65.50;;;;;;4508647;31;20040;-75
2022/12/08 06:45:53;;;;;;;;;;;17.50;65.50;;;;;;4516196;31;20032;-75
2022/12/08 06:48:25;;;;;;;;;;;17.50;65.50;;;;;;4515201;31;20036;-75
2022/12/08 06:50:51;;;;;;;;;;;17.50;65.50;;;;;;4514672;31;20074;-75
2022/12/08 06:53:17;;;;;;;;;;;17.50;65.50;;;;;;4515107;31;20033;-75
2022/12/08 06:55:47;;;;;;;;;;;17.50;65.50;;;;;;4514937;31;20028;-75
2022/12/08 06:58:13;;;;;;;;;;;17.50;65.50;;;;;;4515930;31;20142;-75
2022/12/08 07:00:40;;;;;;;;;;;17.50;65.50;;;;;;4515951;31;20589;-75
2022/12/08 07:03:08;;;;;;;;;;;17.50;65.50;;;;;;4516001;31;20029;-75
2022/12/08 07:05:34;;;;;;;;;;;17.50;65.50;;;;;;4515812;31;20174;-75
2022/12/08 07:08:01;;;;;;;;;;;17.40;65.50;;;;;;4514570;31;20082;-75
2022/12/08 07:10:26;;;;;;;;;;;17.50;65.50;;;;;;4515670;31;20037;-75
2022/12/08 07:12:52;;;;;;;;;;;17.50;65.50;;;;;;4515728;31;20072;-75
2022/12/08 07:15:22;;;;;;;;;;;17.40;65.50;;;;;;4514769;31;20043;-75
2022/12/08 07:17:48;;;;;;;;;;;17.40;65.40;;;;;;4515730;31;20147;-75
2022/12/08 07:20:14;;;;;;;;;;;17.40;65.40;;;;;;4515684;31;20033;-76
2022/12/08 07:22:46;;;;;;;;;;;17.40;65.40;;;;;;4515630;31;20088;-75
2022/12/08 07:25:12;;;;;;;;;;;17.40;65.40;;;;;;4515600;31;20043;-76
2022/12/08 07:27:40;;;;;;;;;;;17.40;65.50;;;;;;4501473;31;20028;-76
2022/12/08 07:30:06;;;;;;;;;;;17.40;65.50;;;;;;4513445;31;20040;-76
2022/12/08 07:32:39;;;;;;;;;;;17.40;65.60;;;;;;4515542;31;20041;-76
2022/12/08 07:35:06;;;;;;;;;;;17.30;65.80;;;;;;4515384;31;20369;-75
2022/12/08 07:37:40;;;;;;;;;;;17.30;65.80;;;;;;4515545;31;20021;-77
2022/12/08 07:40:06;;;;;;;;;;;17.30;65.90;;;;;;4500808;31;20029;-75
2022/12/08 07:42:33;;;;;;;;;;;17.30;66.00;;;;;;4515352;31;20079;-76
2022/12/08 07:44:59;;;;;;;;;;;17.30;66.00;;;;;;4515274;31;20020;-74
2022/12/08 07:47:25;;;;;;;;;;;17.30;65.90;;;;;;4512220;31;20053;-73
2022/12/08 07:49:57;;;;;;;;;;;17.40;66.00;;;;;;4504189;31;20412;-73
2022/12/08 07:52:23;;;;;;;;;;;17.40;65.90;;;;;;4513433;31;20017;-73
2022/12/08 07:54:49;;;;;;;;;;;17.50;65.80;;;;;;4511051;31;20079;-74
2022/12/08 07:57:15;;;;;;;;;;;17.60;65.60;;;;;;4513961;31;20072;-74
2022/12/08 07:59:41;;;;;;;;;;;17.70;65.30;;;;;;4511853;31;20076;-75
2022/12/08 08:02:14;;;;;;;;;;;17.80;65.00;;;;;;4513469;31;20505;-75
2022/12/08 08:04:40;;;;;;;;;;;18.00;64.70;;;;;;4511815;31;20092;-74
2022/12/08 08:07:06;;;;;;;;;;;18.10;64.30;;;;;;4513914;31;20027;-74
2022/12/08 08:09:32;;;;;;;;;;;18.20;64.00;;;;;;4512404;31;20017;-73
2022/12/08 08:12:02;;;;;;;;;;;18.30;63.60;;;;;;4512311;31;20214;-73
2022/12/08 08:14:33;;;;;;;;;;;18.50;63.50;;;;;;4513195;31;20368;-73
2022/12/08 08:16:59;;;;;;;;;;;18.60;63.10;;;;;;4512062;31;20028;-73
2022/12/08 08:19:24;;;;;;;;;;;18.70;62.80;;;;;;4513348;31;20028;-74
2022/12/08 08:21:50;;;;;;;;;;;18.80;62.50;;;;;;4513473;31;20012;-73
2022/12/08 08:24:17;;;;;;;;;;;18.90;62.30;;;;;;4497977;31;20021;-74
2022/12/08 08:26:43;;;;;;;;;;;19.10;62.20;;;;;;4507821;31;20017;-73
2022/12/08 08:29:09;;;;;;;;;;;19.10;61.90;;;;;;4513666;31;20027;-73
2022/12/08 08:31:35;;;;;;;;;;;19.20;61.80;;;;;;4514566;31;20029;-73
2022/12/08 08:34:04;;;;;;;;;;;19.20;61.70;;;;;;4513348;31;20017;-73
2022/12/08 08:36:31;;;;;;;;;;;19.30;61.70;;;;;;4514611;31;20029;-73
2022/12/08 08:38:56;;;;;;;;;;;19.30;61.50;;;;;;4513169;31;20048;-72
2022/12/08 08:41:22;;;;;;;;;;;19.30;61.60;;;;;;4513284;31;20027;-74
2022/12/08 08:43:48;;;;;;;;;;;19.30;61.50;;;;;;4500307;31;20424;-73
2022/12/08 08:46:14;;;;;;;;;;;19.30;61.40;;;;;;4514518;31;20167;-73
2022/12/08 08:48:40;;;;;;;;;;;19.40;61.40;;;;;;4512820;31;20620;-71
2022/12/08 08:51:09;;;;;;;;;;;19.30;61.40;;;;;;4511932;31;20029;-73
2022/12/08 08:53:35;;;;;;;;;;;19.40;61.40;;;;;;4512427;31;20036;-73
2022/12/08 08:56:03;;;;;;;;;;;19.30;61.20;;;;;;4510203;31;20178;-73
2022/12/08 08:58:30;;;;;;;;;;;19.40;61.20;;;;;;4512207;31;20063;-73
2022/12/08 09:00:56;;;;;;;;;;;19.40;61.20;;;;;;4511929;31;20068;-72
2022/12/08 09:03:33;;;;;;;;;;;19.50;61.20;;;;;;4505890;31;20359;-72
2022/12/08 09:05:59;;;;;;;;;;;19.50;61.10;;;;;;4506237;31;20051;-72
2022/12/08 09:08:25;;;;;;;;;;;19.50;61.10;;;;;;4512944;31;20436;-72
2022/12/08 09:10:51;;;;;;;;;;;19.50;61.10;;;;;;4506887;31;20110;-72
2022/12/08 09:13:17;;;;;;;;;;;19.50;61.10;;;;;;4503944;31;20175;-72
2022/12/08 09:15:43;;;;;;;;;;;19.50;61.10;;;;;;4502313;31;20175;-72
2022/12/08 09:18:09;;;;;;;;;;;19.50;61.20;;;;;;4505435;31;20033;-73
2022/12/08 09:20:34;;;;;;;;;;;19.50;61.10;;;;;;4502723;31;20078;-73
2022/12/08 09:23:00;;;;;;;;;;;19.50;61.20;;;;;;4505249;31;20047;-71
2022/12/08 09:25:27;;;;;;;;;;;19.50;61.30;;;;;;4505960;31;20137;-73
2022/12/08 09:27:53;;;;;;;;;;;19.60;61.40;;;;;;4510845;31;20036;-77
2022/12/08 09:30:19;;;;;;;;;;;19.50;61.40;;;;;;4512829;31;20031;-74
2022/12/08 09:32:45;;;;;;;;;;;19.60;61.60;;;;;;4513182;31;20028;-72
2022/12/08 09:35:12;;;;;;;;;;;19.50;61.60;;;;;;4513061;31;20043;-74
2022/12/08 09:37:38;;;;;;;;;;;19.60;61.70;;;;;;4513067;31;20029;-75
2022/12/08 09:40:05;;;;;;;;;;;19.50;61.70;;;;;;4512670;31;20045;-75
2022/12/08 09:42:40;;;;;;;;;;;19.50;61.80;;;;;;4512859;31;20020;-76
2022/12/08 09:45:14;;;;;;;;;;;19.50;61.80;;;;;;4513076;31;20033;-76
2022/12/08 09:47:44;;;;;;;;;;;19.50;61.90;;;;;;4514030;31;20021;-75
2022/12/08 09:50:17;;;;;;;;;;;19.60;61.90;;;;;;4514096;31;20032;-74
2022/12/08 09:52:46;;;;;;;;;;;19.50;61.80;;;;;;4513212;31;20079;-74
2022/12/08 09:55:23;;;;;;;;;;;19.50;61.80;;;;;;4517045;31;20036;-74
2022/12/08 09:57:52;;;;;;;;;;;19.50;61.80;;;;;;4515587;31;20083;-74
2022/12/08 10:00:18;;;;;;;;;;;19.60;61.80;;;;;;4516900;31;20093;-74
2022/12/08 10:02:46;;;;;;;;;;;19.50;61.80;;;;;;4502536;31;20017;-74
2022/12/08 10:05:12;;;;;;;;;;;19.50;61.80;;;;;;4516827;31;20016;-74
2022/12/08 10:08:00;;;;;;;;;;;19.50;61.80;;;;;;4516826;31;20059;-74
2022/12/08 10:10:40;;;;;;;;;;;19.60;61.90;;;;;;4507400;31;20035;-74
2022/12/08 10:13:15;;;;;;;;;;;19.60;61.90;;;;;;4515551;31;20032;-73
2022/12/08 10:15:59;;;;;;;;;;;19.60;61.90;;;;;;4516862;31;20028;-74
2022/12/08 10:18:28;;;;;;;;;;;19.60;61.90;;;;;;4515407;31;20024;-77
2022/12/08 10:20:56;;;;;;;;;;;19.60;61.90;;;;;;4515594;31;20028;-78
2022/12/08 10:23:31;;;;;;;;;;;19.60;62.00;;;;;;4516200;31;20040;-77
2022/12/08 10:26:01;;;;;;;;;;;19.60;62.00;;;;;;4516376;31;20036;-76
2022/12/08 10:28:27;;;;;;;;;;;19.60;62.10;;;;;;4516516;31;20016;-76
2022/12/08 10:30:55;;;;;;;;;;;19.60;62.10;;;;;;4514979;31;20079;-76
2022/12/08 10:33:21;;;;;;;;;;;19.70;62.20;;;;;;4516661;31;20024;-76
2022/12/08 10:35:48;;;;;;;;;;;19.60;62.20;;;;;;4515186;31;20060;-75
2022/12/08 10:38:35;;;;;;;;;;;19.70;62.30;;;;;;4516014;31;20029;-73
2022/12/08 10:41:00;;;;;;;;;;;19.60;62.20;;;;;;4515553;31;20025;-74
2022/12/08 10:43:26;;;;;;;;;;;19.60;62.10;;;;;;4514336;31;20044;-73
2022/12/08 10:45:53;;;;;;;;;;;19.60;62.00;;;;;;4511767;31;20037;-73
2022/12/08 10:48:26;;;;;;;;;;;19.60;62.00;;;;;;4512199;31;20531;-76
2022/12/08 10:50:55;;;;;;;;;;;19.50;61.70;;;;;;4508578;31;20038;-74
2022/12/08 10:53:22;;;;;;;;;;;19.50;61.80;;;;;;4504184;31;20047;-74
2022/12/08 10:56:03;;;;;;;;;;;19.50;61.90;;;;;;4508727;31;20467;-74
2022/12/08 10:58:32;;;;;;;;;;;19.50;62.10;;;;;;4514538;31;20126;-76
2022/12/08 11:01:05;;;;;;;;;;;19.40;62.20;;;;;;4514491;31;20071;-74
2022/12/08 11:03:57;;;;;;;;;;;19.30;62.30;;;;;;4502147;31;20032;-74
2022/12/08 11:06:29;;;;;;;;;;;19.30;62.50;;;;;;4508572;31;20134;-74
2022/12/08 11:08:59;;;;;;;;;;;19.20;62.60;;;;;;4513057;31;20170;-74
2022/12/08 11:11:43;;;;;;;;;;;19.20;62.70;;;;;;4513330;31;20048;-75
2022/12/08 11:14:15;;;;;;;;;;;19.30;62.80;;;;;;4509681;31;20037;-73
2022/12/08 11:16:41;;;;;;;;;;;19.30;62.70;;;;;;4512759;31;20041;-74
2022/12/08 11:19:15;;;;;;;;;;;19.30;62.70;;;;;;4514313;31;20028;-74
2022/12/08 11:21:41;;;;;;;;;;;19.40;62.60;;;;;;4511687;31;20520;-74
2022/12/08 11:24:13;;;;;;;;;;;19.50;62.40;;;;;;4513283;31;20039;-74
2022/12/08 11:26:44;;;;;;;;;;;19.50;62.30;;;;;;4511010;31;20041;-74
2022/12/08 11:29:11;;;;;;;;;;;19.60;62.10;;;;;;4514332;31;20020;-74
2022/12/08 11:31:42;;;;;;;;;;;19.70;61.90;;;;;;4492145;31;20131;-75
2022/12/08 11:34:17;;;;;;;;;;;19.70;61.80;;;;;;4513289;31;20043;-74
2022/12/08 11:36:43;;;;;;;;;;;19.80;61.70;;;;;;4515054;31;20044;-74
2022/12/08 11:39:09;;;;;;;;;;;19.80;61.70;;;;;;4514762;31;20175;-74
2022/12/08 11:41:37;;;;;;;;;;;19.80;61.60;;;;;;4515090;31;20051;-74
2022/12/08 11:44:23;;;;;;;;;;;19.90;61.70;;;;;;4514980;31;20028;-74
2022/12/08 11:47:03;;;;;;;;;;;19.90;61.70;;;;;;4514959;31;20040;-74
2022/12/08 11:49:39;;;;;;;;;;;19.90;61.60;;;;;;4514927;31;20039;-74
2022/12/08 11:52:12;;;;;;;;;;;19.90;61.70;;;;;;4514354;31;20155;-74
2022/12/08 11:54:46;;;;;;;;;;;19.90;61.70;;;;;;4514834;31;20040;-77
2022/12/08 11:57:19;;;;;;;;;;;19.90;61.70;;;;;;4514628;31;20036;-75
2022/12/08 11:59:49;;;;;;;;;;;19.90;61.80;;;;;;4514634;31;20154;-77
2022/12/08 12:02:18;;;;;;;;;;;19.90;61.80;;;;;;4514445;31;20036;-78
2022/12/08 12:04:53;;;;;;;;;;;19.90;61.90;;;;;;4493312;31;20033;-81
2022/12/08 12:07:36;;;;;;;;;;;20.00;62.00;;;;;;4513975;31;20025;-75
2022/12/08 12:10:09;;;;;;;;;;;20.00;62.00;;;;;;4514015;31;20040;-76
2022/12/08 12:12:49;;;;;;;;;;;20.00;62.10;;;;;;4514339;31;20032;-74
2022/12/08 12:15:15;;;;;;;;;;;20.00;62.20;;;;;;4513065;31;20041;-80
2022/12/08 12:17:53;;;;;;;;;;;19.90;62.10;;;;;;4513645;31;20025;-77
2022/12/08 12:20:22;;;;;;;;;;;19.90;62.20;;;;;;4513515;31;20033;-77
2022/12/08 12:22:52;;;;;;;;;;;19.90;62.20;;;;;;4514310;31;20029;-75
2022/12/08 12:25:19;;;;;;;;;;;19.90;62.20;;;;;;4514349;31;20035;-76
2022/12/08 12:27:47;;;;;;;;;;;19.90;62.30;;;;;;4514289;31;20055;-76
2022/12/08 12:30:23;;;;;;;;;;;19.90;62.30;;;;;;4514470;31;20438;-75
2022/12/08 12:32:52;;;;;;;;;;;19.90;63.10;;;;;;4503774;31;20037;-76
2022/12/08 12:35:20;;;;;;;;;;;19.90;62.20;;;;;;4514436;31;20178;-76
2022/12/08 12:37:47;;;;;;;;;;;19.90;62.20;;;;;;4514233;31;20150;-77
2022/12/08 12:40:21;;;;;;;;;;;19.90;62.20;;;;;;4514070;31;20045;-77
2022/12/08 12:42:56;;;;;;;;;;;19.90;62.20;;;;;;4513732;31;20146;-77
2022/12/08 12:45:31;;;;;;;;;;;19.90;62.20;;;;;;4514417;31;20485;-76
2022/12/08 12:48:00;;;;;;;;;;;19.90;62.20;;;;;;4514111;31;20146;-74
2022/12/08 12:50:32;;;;;;;;;;;19.90;62.20;;;;;;4514168;31;20029;-74
2022/12/08 12:53:24;;;;;;;;;;;19.90;62.20;;;;;;4512592;31;20025;-76
2022/12/08 12:55:57;;;;;;;;;;;19.90;62.20;;;;;;4513478;31;20407;-75
2022/12/08 12:58:26;;;;;;;;;;;19.90;62.30;;;;;;4513229;31;20040;-74
2022/12/08 13:01:07;;;;;;;;;;;19.90;62.40;;;;;;4514490;31;20036;-75
2022/12/08 13:03:33;;;;;;;;;;;19.90;62.40;;;;;;4500744;31;20091;-75
2022/12/08 13:06:01;;;;;;;;;;;19.90;62.30;;;;;;4509667;31;20046;-74
2022/12/08 13:08:27;;;;;;;;;;;19.90;62.30;;;;;;4513047;31;20029;-75
2022/12/08 13:11:20;;;;;;;;;;;19.90;62.30;;;;;;4513089;31;20098;-75
2022/12/08 13:14:02;;;;;;;;;;;19.90;62.30;;;;;;4512680;31;20028;-74
2022/12/08 13:16:36;;;;;;;;;;;19.90;62.20;;;;;;4513206;31;20021;-74
2022/12/08 13:19:11;;;;;;;;;;;20.00;62.20;;;;;;4514288;31;20040;-77
2022/12/08 13:21:38;;;;;;;;;;;19.90;62.00;;;;;;4513163;31;20033;-76
2022/12/08 13:24:16;;;;;;;;;;;20.00;62.20;;;;;;4513620;31;20456;-75
2022/12/08 13:26:43;;;;;;;;;;;20.00;62.20;;;;;;4510438;31;20139;-78
2022/12/08 13:29:23;;;;;;;;;;;20.00;62.20;;;;;;4515380;31;20157;-76
2022/12/08 13:32:12;;;;;;;;;;;20.00;62.20;;;;;;4513853;31;20036;-77
2022/12/08 13:34:47;;;;;;;;;;;20.00;62.30;;;;;;4478439;31;20037;-77
2022/12/08 13:37:20;;;;;;;;;;;20.00;62.20;;;;;;4513119;31;21134;-77
2022/12/08 13:40:09;;;;;;;;;;;20.00;62.30;;;;;;4513084;31;20055;-74
2022/12/08 13:42:41;;;;;;;;;;;20.00;62.40;;;;;;4513578;31;20033;-71
2022/12/08 13:45:09;;;;;;;;;;;20.00;62.40;;;;;;4515226;31;20045;-75
2022/12/08 13:47:44;;;;;;;;;;;20.00;62.50;;;;;;4514397;31;20117;-77
2022/12/08 13:50:10;;;;;;;;;;;20.00;62.50;;;;;;4514186;31;20093;-73
2022/12/08 13:52:53;;;;;;;;;;;20.00;62.50;;;;;;4506403;31;20025;-71
2022/12/08 13:55:31;;;;;;;;;;;20.00;62.50;;;;;;4511643;31;20433;-76
2022/12/08 13:58:01;;;;;;;;;;;20.00;62.40;;;;;;4515399;31;20013;-77
2022/12/08 14:00:26;;;;;;;;;;;20.00;62.50;;;;;;4516520;31;20044;-72
2022/12/08 14:02:56;;;;;;;;;;;20.00;62.40;;;;;;4509375;31;20033;-75
2022/12/08 14:05:24;;;;;;;;;;;20.00;62.50;;;;;;4510228;31;20032;-77
2022/12/08 14:07:52;;;;;;;;;;;20.00;62.50;;;;;;4514229;31;20039;-73
2022/12/08 14:10:20;;;;;;;;;;;20.00;63.40;;;;;;4515458;31;20179;-74
2022/12/08 14:12:51;;;;;;;;;;;20.00;62.60;;;;;;4516030;31;20035;-74
2022/12/08 14:15:18;;;;;;;;;;;20.00;62.70;;;;;;4514371;31;20028;-72
2022/12/08 14:17:52;;;;;;;;;;;20.00;62.70;;;;;;4514366;31;20158;-74
2022/12/08 14:20:23;;;;;;;;;;;20.00;62.60;;;;;;4513375;31;20032;-74
2022/12/08 14:22:50;;;;;;;;;;;20.00;63.50;;;;;;4514470;31;20071;-73
2022/12/08 14:25:16;;;;;;;;;;;20.10;62.70;;;;;;4514315;31;20198;-73
2022/12/08 14:27:46;;;;;;;;;;;20.10;62.70;;;;;;4515631;31;20047;-74
2022/12/08 14:30:13;;;;;;;;;;;20.10;62.70;;;;;;4513341;31;20046;-74
2022/12/08 14:32:58;;;;;;;;;;;20.10;62.70;;;;;;4514211;31;20175;-74